Ingeniero Williams, Argentina
Current Conditions -  °F | °C
As of 3:00 AM on Friday 31 Oct 2014 (Local Time) from SAEZ Reporting Station
Clear Clear  
Wind Chill: 64°   Ceiling: Unl
Heat Index: 64°   Visibility: 6mi
Dew Point: 54°   Wind: 7mph
Humidity: 68%   Direction: 70°ENE
Pressure: 29.85"   Gusts: NA
Location:  34.96°S, 59.32°W
Report Text: SAEZ 310600Z 07006KT CAVOK 18/12 Q1011
Loading
Personal Weather Stations






























Interactive Weather Map
Tropical Storm Tracking
New forecast layout! Learn more

10-Day Weather Forecast

Advertisements
Track Severe Weather on mobile